createdAt,value
2019-04-22T00:00:10.686Z,54.90
2019-04-22T00:02:48.963Z,54.90
2019-04-22T00:05:36.924Z,55.10
2019-04-22T00:08:08.993Z,55.40
2019-04-22T00:10:50.367Z,55.60
2019-04-22T00:13:23.755Z,56.00
2019-04-22T00:15:41.821Z,56.30
2019-04-22T00:18:22.385Z,56.40
2019-04-22T00:20:59.803Z,56.70
2019-04-22T00:23:23.471Z,57.40
2019-04-22T00:26:01.651Z,57.60
2019-04-22T00:28:30.801Z,57.70
2019-04-22T00:31:16.911Z,57.90
2019-04-22T00:33:39.369Z,58.00
2019-04-22T00:36:23.317Z,58.20
2019-04-22T00:38:56.232Z,58.40
2019-04-22T00:41:28.633Z,58.80
2019-04-22T00:44:02.928Z,59.70
2019-04-22T00:46:31.471Z,59.20
2019-04-22T00:49:49.055Z,59.40
2019-04-22T00:51:33.592Z,59.60
2019-04-22T00:54:01.022Z,60.20
2019-04-22T00:56:32.818Z,60.60
2019-04-22T00:59:11.973Z,61.00
2019-04-22T01:01:37.196Z,61.40
2019-04-22T01:06:42.757Z,62.10
2019-04-22T01:09:17.356Z,62.50
2019-04-22T01:11:44.597Z,62.80
2019-04-22T01:14:22.066Z,64.00
2019-04-22T01:16:57.886Z,63.20
2019-04-22T01:19:23.580Z,63.40
2019-04-22T01:21:49.803Z,63.70
2019-04-22T01:24:22.252Z,63.60
2019-04-22T01:26:50.826Z,63.70
2019-04-22T01:29:19.642Z,63.50
2019-04-22T01:31:41.831Z,63.30
2019-04-22T01:34:32.211Z,63.20
2019-04-22T01:37:02.585Z,63.20
2019-04-22T01:39:43.715Z,63.50
2019-04-22T01:42:10.473Z,63.90
2019-04-22T01:47:21.296Z,64.80
2019-04-22T01:49:47.600Z,65.20
2019-04-22T01:52:17.024Z,65.40
2019-04-22T01:55:10.600Z,65.60
2019-04-22T01:57:27.027Z,65.60
2019-04-22T01:59:45.713Z,65.70
2019-04-22T02:02:30.399Z,65.80
2019-04-22T02:04:59.793Z,66.00
2019-04-22T02:07:29.540Z,65.90
2019-04-22T02:10:02.331Z,66.00
2019-04-22T02:12:33.382Z,66.10
2019-04-22T02:15:09.976Z,66.20
2019-04-22T02:17:37.188Z,66.30
2019-04-22T02:20:13.510Z,66.60
2019-04-22T02:28:40.122Z,67.40
2019-04-22T02:31:23.211Z,67.70
2019-04-22T02:41:26.389Z,67.90
2019-04-22T02:51:21.891Z,68.20
2019-04-22T02:59:04.245Z,69.20
2019-04-22T03:04:09.669Z,69.90
2019-04-22T03:09:03.818Z,70.50
2019-04-22T03:11:34.213Z,70.50
2019-04-22T03:19:22.798Z,71.00
2019-04-22T03:21:44.199Z,71.10
2019-04-22T03:24:28.950Z,71.10
2019-04-22T03:29:24.113Z,71.20
2019-04-22T03:42:10.011Z,71.80
2019-04-22T03:44:50.072Z,72.70
2019-04-22T03:47:24.066Z,72.20
2019-04-22T03:54:52.055Z,72.70
2019-04-22T03:59:48.194Z,73.00
2019-04-22T04:02:29.313Z,73.30
2019-04-22T04:05:05.329Z,73.50
2019-04-22T04:07:32.356Z,73.60
2019-04-22T04:10:00.387Z,73.40
2019-04-22T04:15:12.349Z,72.80
2019-04-22T04:22:56.324Z,71.80
2019-04-22T04:25:24.197Z,71.60
2019-04-22T04:27:54.121Z,71.40
2019-04-22T04:35:23.720Z,69.90
2019-04-22T04:37:55.832Z,69.60
2019-04-22T04:43:00.889Z,69.00
2019-04-22T04:50:34.339Z,67.30
2019-04-22T04:55:28.188Z,67.60
2019-04-22T05:08:13.832Z,67.00
2019-04-22T05:10:53.729Z,66.80
2019-04-22T05:13:33.550Z,66.60
2019-04-22T05:18:26.543Z,66.30
2019-04-22T05:21:11.248Z,65.90
2019-04-22T05:23:25.090Z,65.70
2019-04-22T05:25:55.050Z,65.10
2019-04-22T05:30:43.725Z,64.50
2019-04-22T05:33:19.050Z,63.70
2019-04-22T05:35:46.389Z,63.60
2019-04-22T05:38:31.345Z,63.10
2019-04-22T05:40:54.587Z,62.20
2019-04-22T05:43:27.261Z,61.40
2019-04-22T05:45:57.871Z,60.90
2019-04-22T05:48:33.097Z,60.00
2019-04-22T05:51:03.740Z,59.20
2019-04-22T05:53:34.376Z,58.50
2019-04-22T05:56:09.980Z,57.90
2019-04-22T05:58:38.112Z,57.50
2019-04-22T06:03:46.067Z,57.10
2019-04-22T06:06:16.733Z,57.00
2019-04-22T06:08:48.720Z,56.70
2019-04-22T06:11:24.166Z,56.50
2019-04-22T06:13:50.157Z,56.30
2019-04-22T06:16:26.314Z,56.00
2019-04-22T06:19:03.185Z,56.00
2019-04-22T06:24:14.135Z,55.20
2019-04-22T06:26:47.187Z,54.80
2019-04-22T06:29:19.432Z,54.30
2019-04-22T06:32:03.648Z,53.60
2019-04-22T06:34:17.737Z,53.40
2019-04-22T06:39:27.822Z,52.10
2019-04-22T06:41:51.676Z,51.80
2019-04-22T06:46:52.061Z,51.70
2019-04-22T06:49:22.765Z,51.60
2019-04-22T06:52:00.160Z,51.00
2019-04-22T06:54:28.310Z,50.70
2019-04-22T06:57:02.451Z,50.50
2019-04-22T06:59:34.451Z,50.20
2019-04-22T07:02:04.516Z,49.80
2019-04-22T07:04:38.256Z,49.10
2019-04-22T07:07:08.338Z,48.80
2019-04-22T07:09:41.447Z,48.60
2019-04-22T07:12:15.560Z,48.20
2019-04-22T07:14:42.121Z,47.80
2019-04-22T07:17:30.925Z,46.00
2019-04-22T07:19:45.324Z,41.20
2019-04-22T07:22:18.557Z,35.60
2019-04-22T07:29:56.131Z,26.30
2019-04-22T07:32:40.091Z,24.90
2019-04-22T07:37:37.412Z,24.00
2019-04-22T07:39:56.971Z,23.60
2019-04-22T07:42:32.866Z,23.00
2019-04-22T07:45:05.035Z,23.20
2019-04-22T07:47:52.152Z,23.10
2019-04-22T07:50:12.826Z,22.40
2019-04-22T07:52:41.445Z,22.60
2019-04-22T07:55:07.096Z,22.30
2019-04-22T07:57:44.501Z,22.10
2019-04-22T08:00:16.000Z,21.20
2019-04-22T08:02:51.722Z,20.40
2019-04-22T08:05:22.310Z,20.60
2019-04-22T08:07:48.947Z,20.10
2019-04-22T08:10:30.190Z,20.00
2019-04-22T08:15:27.388Z,19.10
2019-04-22T08:20:35.022Z,19.10
2019-04-22T08:23:09.218Z,19.30
2019-04-22T08:25:38.797Z,19.60
2019-04-22T08:28:13.400Z,19.20
2019-04-22T08:30:50.693Z,19.00
2019-04-22T08:33:16.188Z,19.20
2019-04-22T08:36:00.876Z,19.00
2019-04-22T08:38:14.734Z,19.20
2019-04-22T08:41:39.209Z,19.30
2019-04-22T08:44:41.574Z,20.00
2019-04-22T08:46:34.764Z,19.50
2019-04-22T08:49:10.317Z,18.30
2019-04-22T08:51:49.097Z,18.10
2019-04-22T08:54:11.775Z,18.70
2019-04-22T08:56:43.980Z,18.80
2019-04-22T09:01:37.678Z,18.10
2019-04-22T09:04:11.973Z,19.40
2019-04-22T09:07:02.436Z,19.10
2019-04-22T09:09:21.225Z,19.40
2019-04-22T09:11:56.405Z,19.90
2019-04-22T09:14:26.656Z,19.20
2019-04-22T09:16:48.609Z,18.70
2019-04-22T09:19:27.064Z,18.50
2019-04-22T09:22:00.404Z,18.70
2019-04-22T09:24:29.210Z,18.50
2019-04-22T09:27:08.126Z,18.30
2019-04-22T09:29:34.018Z,18.50
2019-04-22T09:32:05.304Z,18.60
2019-04-22T09:37:17.974Z,18.00
2019-04-22T09:39:44.312Z,18.70
2019-04-22T09:42:09.105Z,18.80
2019-04-22T09:47:11.685Z,19.50
2019-04-22T09:50:01.519Z,19.70
2019-04-22T09:52:15.031Z,20.00
2019-04-22T09:57:21.122Z,20.20
2019-04-22T09:59:57.778Z,19.70
2019-04-22T10:05:00.166Z,20.00
2019-04-22T10:07:50.287Z,20.00
2019-04-22T10:10:11.213Z,19.50
2019-04-22T10:12:37.043Z,19.50
2019-04-22T10:15:07.900Z,20.70
2019-04-22T10:17:39.275Z,19.80
2019-04-22T10:20:10.214Z,19.30
2019-04-22T10:22:46.036Z,18.60
2019-04-22T10:25:21.449Z,19.10
2019-04-22T10:27:52.360Z,18.50
2019-04-22T10:30:31.559Z,18.70
2019-04-22T10:32:47.590Z,18.90
2019-04-22T10:35:15.452Z,18.80
2019-04-22T10:37:42.821Z,19.40
2019-04-22T10:40:34.638Z,19.70
2019-04-22T10:43:05.420Z,20.60
2019-04-22T10:45:36.212Z,21.40
2019-04-22T10:48:10.443Z,21.90
2019-04-22T10:50:43.574Z,21.30
2019-04-22T10:53:15.409Z,21.10
2019-04-22T10:55:47.709Z,21.50
2019-04-22T10:58:20.837Z,21.50
2019-04-22T11:00:52.271Z,21.90
2019-04-22T11:03:24.524Z,22.10
2019-04-22T11:05:54.833Z,21.70
2019-04-22T11:08:34.966Z,21.60
2019-04-22T11:11:12.388Z,21.60
2019-04-22T11:13:28.446Z,21.70
2019-04-22T11:15:58.823Z,21.90
2019-04-22T11:18:31.546Z,21.60
2019-04-22T11:21:02.023Z,21.90
2019-04-22T11:23:32.454Z,22.40
2019-04-22T11:26:03.900Z,22.20
2019-04-22T11:28:35.738Z,22.00
2019-04-22T11:31:06.255Z,22.10
2019-04-22T11:33:36.507Z,22.10
2019-04-22T11:36:08.016Z,21.60
2019-04-22T11:38:48.628Z,21.80
2019-04-22T11:41:09.936Z,21.70
2019-04-22T11:43:41.199Z,21.80
2019-04-22T11:46:11.549Z,22.00
2019-04-22T11:48:42.405Z,22.00
2019-04-22T11:51:13.820Z,22.50
2019-04-22T11:53:45.072Z,21.60
2019-04-22T11:56:16.821Z,21.40
2019-04-22T11:58:47.107Z,20.40
2019-04-22T12:01:17.118Z,20.30
2019-04-22T12:03:47.191Z,20.20
2019-04-22T12:06:18.010Z,20.40
2019-04-22T12:08:49.914Z,20.60
2019-04-22T12:11:20.713Z,19.90
2019-04-22T12:13:51.796Z,19.70
2019-04-22T12:16:23.212Z,20.30
2019-04-22T12:18:53.716Z,21.00
2019-04-22T12:21:24.155Z,19.70
2019-04-22T12:23:54.987Z,19.80
2019-04-22T12:26:26.917Z,20.00
2019-04-22T12:28:57.299Z,19.60
2019-04-22T12:31:27.562Z,20.40
2019-04-22T12:33:57.594Z,20.30
2019-04-22T12:36:28.670Z,20.00
2019-04-22T12:38:59.722Z,20.40
2019-04-22T12:41:31.024Z,20.50
2019-04-22T12:44:01.351Z,21.20
2019-04-22T12:46:32.330Z,20.20
2019-04-22T12:49:02.722Z,20.80
2019-04-22T12:51:33.285Z,20.10
2019-04-22T12:54:03.668Z,20.10
2019-04-22T12:56:33.806Z,20.30
2019-04-22T12:59:05.579Z,21.10
2019-04-22T13:01:37.304Z,20.60
2019-04-22T13:04:10.191Z,20.90
2019-04-22T13:06:39.895Z,20.70
2019-04-22T13:09:10.532Z,20.90
2019-04-22T13:11:42.251Z,20.60
2019-04-22T13:14:12.706Z,20.60
2019-04-22T13:16:43.032Z,20.70
2019-04-22T13:19:17.049Z,19.60
2019-04-22T13:21:45.130Z,19.80
2019-04-22T13:24:18.155Z,20.20
2019-04-22T13:26:48.526Z,19.90
2019-04-22T13:29:19.265Z,19.40
2019-04-22T13:31:50.593Z,19.90
2019-04-22T13:34:29.187Z,19.50
2019-04-22T13:36:52.960Z,19.10
2019-04-22T13:39:25.044Z,19.40
2019-04-22T13:42:00.460Z,19.50
2019-04-22T13:44:28.435Z,19.80
2019-04-22T13:47:14.758Z,19.80
2019-04-22T13:50:13.617Z,19.50
2019-04-22T13:52:40.329Z,19.40
2019-04-22T13:55:15.932Z,19.90
2019-04-22T13:57:24.947Z,19.70
2019-04-22T13:59:44.078Z,19.70
2019-04-22T14:02:38.529Z,19.30
2019-04-22T14:05:10.595Z,19.40
2019-04-22T14:07:41.094Z,19.00
2019-04-22T14:10:12.144Z,19.00
2019-04-22T14:12:42.684Z,19.70
2019-04-22T14:15:13.942Z,20.10
2019-04-22T14:17:45.396Z,19.80
2019-04-22T14:20:16.433Z,19.90
2019-04-22T14:22:46.440Z,20.20
2019-04-22T14:25:16.760Z,20.10
2019-04-22T14:27:54.492Z,19.80
2019-04-22T14:30:18.922Z,19.60
2019-04-22T14:32:48.978Z,19.80
2019-04-22T14:35:20.890Z,19.90
2019-04-22T14:37:52.276Z,20.30
2019-04-22T14:40:24.720Z,19.80
2019-04-22T14:43:13.480Z,20.00
2019-04-22T14:46:04.648Z,19.70
2019-04-22T14:48:27.851Z,20.00
2019-04-22T14:50:52.076Z,20.50
2019-04-22T14:53:21.718Z,20.60
2019-04-22T14:55:36.697Z,20.90
2019-04-22T14:58:06.829Z,21.40
2019-04-22T15:00:38.149Z,21.60
2019-04-22T15:03:09.937Z,22.10
2019-04-22T15:05:41.976Z,22.30
2019-04-22T15:08:13.147Z,22.30
2019-04-22T15:10:44.139Z,22.10
2019-04-22T15:13:15.583Z,21.80
2019-04-22T15:16:11.867Z,21.50
2019-04-22T15:19:05.492Z,21.90
2019-04-22T15:21:36.722Z,21.90
2019-04-22T15:24:27.345Z,22.30
2019-04-22T15:26:58.645Z,22.20
2019-04-22T15:29:31.395Z,22.50
2019-04-22T15:32:03.049Z,22.30
2019-04-22T15:34:34.609Z,22.50
2019-04-22T15:37:06.333Z,22.60
2019-04-22T15:39:36.660Z,22.30
2019-04-22T15:42:17.376Z,22.10
2019-04-22T15:44:39.985Z,22.20
2019-04-22T15:47:11.173Z,22.30
2019-04-22T15:49:42.240Z,22.40
2019-04-22T15:52:12.673Z,22.60
2019-04-22T15:54:43.781Z,22.30
2019-04-22T15:57:14.947Z,22.30
2019-04-22T16:00:05.275Z,21.90
2019-04-22T16:02:19.338Z,21.60
2019-04-22T16:04:50.626Z,21.40
2019-04-22T16:07:23.917Z,20.90
2019-04-22T16:09:53.866Z,20.90
2019-04-22T16:12:30.902Z,20.80
2019-04-22T16:14:57.449Z,20.60
2019-04-22T16:17:28.634Z,20.70
2019-04-22T16:19:59.405Z,21.00
2019-04-22T16:22:32.465Z,21.20
2019-04-22T16:25:25.106Z,21.70
2019-04-22T16:27:56.461Z,21.90
2019-04-22T16:30:27.781Z,22.00
2019-04-22T16:33:01.524Z,23.00
2019-04-22T16:35:32.761Z,22.40
2019-04-22T16:38:04.338Z,22.60
2019-04-22T16:40:34.759Z,22.50
2019-04-22T16:43:07.756Z,22.80
2019-04-22T16:45:37.796Z,22.60
2019-04-22T16:48:09.290Z,22.60
2019-04-22T16:50:42.810Z,22.60
2019-04-22T16:53:13.812Z,22.60
2019-04-22T16:55:44.529Z,22.70
2019-04-22T16:58:15.047Z,22.20
2019-04-22T17:00:46.940Z,22.30
2019-04-22T17:03:42.826Z,22.50
2019-04-22T17:06:19.417Z,22.60
2019-04-22T17:08:50.702Z,23.00
2019-04-22T17:11:22.147Z,22.80
2019-04-22T17:13:53.028Z,22.80
2019-04-22T17:16:24.366Z,22.40
2019-04-22T17:18:56.322Z,22.50
2019-04-22T17:21:27.762Z,22.30
2019-04-22T17:23:59.287Z,22.50
2019-04-22T17:26:30.437Z,22.00
2019-04-22T17:29:04.023Z,22.00
2019-04-22T17:31:32.276Z,21.90
2019-04-22T17:34:02.610Z,22.10
2019-04-22T17:36:33.965Z,22.20
2019-04-22T17:39:18.287Z,22.10
2019-04-22T17:41:59.419Z,22.10
2019-04-22T17:44:40.048Z,22.20
2019-04-22T17:47:30.323Z,22.70
2019-04-22T17:50:11.538Z,22.40
2019-04-22T17:52:36.519Z,22.80
2019-04-22T17:55:11.437Z,22.50
2019-04-22T17:57:39.208Z,22.40
2019-04-22T18:00:17.277Z,22.30
2019-04-22T18:02:45.838Z,22.70
2019-04-22T18:05:03.759Z,22.60
2019-04-22T18:07:52.595Z,22.80
2019-04-22T18:10:33.091Z,23.00
2019-04-22T18:13:01.934Z,22.90
2019-04-22T18:15:35.756Z,23.00
2019-04-22T18:18:09.125Z,23.80
2019-04-22T18:20:28.162Z,23.50
2019-04-22T18:22:54.632Z,23.30
2019-04-22T18:25:33.872Z,23.40
2019-04-22T18:28:15.185Z,24.80
2019-04-22T18:30:33.364Z,27.70
2019-04-22T18:33:13.293Z,29.40
2019-04-22T18:35:42.057Z,30.80
2019-04-22T18:38:28.172Z,31.90
2019-04-22T18:40:44.801Z,32.80
2019-04-22T18:43:25.978Z,33.60
2019-04-22T18:45:54.942Z,34.10
2019-04-22T18:48:12.209Z,34.60
2019-04-22T18:51:06.564Z,35.10
2019-04-22T18:53:52.031Z,35.30
2019-04-22T18:56:21.970Z,35.50
2019-04-22T18:58:45.844Z,35.70
2019-04-22T19:01:08.083Z,36.00
2019-04-22T19:03:51.089Z,36.30
2019-04-22T19:06:46.346Z,36.60
2019-04-22T19:09:05.318Z,36.80
2019-04-22T19:11:38.640Z,37.10
2019-04-22T19:14:06.021Z,37.40
2019-04-22T19:16:39.740Z,37.60
2019-04-22T19:19:29.786Z,37.80
2019-04-22T19:21:43.390Z,37.80
2019-04-22T19:24:09.046Z,38.10
2019-04-22T19:29:18.634Z,38.40
2019-04-22T19:31:52.351Z,38.50
2019-04-22T19:34:20.461Z,38.60
2019-04-22T19:36:57.267Z,38.90
2019-04-22T19:39:22.764Z,39.30
2019-04-22T19:42:00.886Z,39.20
2019-04-22T19:44:33.275Z,39.30
2019-04-22T19:47:19.582Z,39.50
2019-04-22T19:49:40.902Z,39.40
2019-04-22T19:52:24.549Z,39.50
2019-04-22T19:54:40.649Z,39.40
2019-04-22T19:57:05.839Z,40.20
2019-04-22T19:59:45.459Z,39.30
2019-04-22T20:02:33.168Z,39.30
2019-04-22T20:05:21.088Z,39.50
2019-04-22T20:07:41.851Z,39.30
2019-04-22T20:10:20.592Z,39.10
2019-04-22T20:12:42.880Z,39.00
2019-04-22T20:15:21.411Z,39.10
2019-04-22T20:18:19.166Z,39.30
2019-04-22T20:20:27.334Z,39.20
2019-04-22T20:22:52.354Z,39.00
2019-04-22T20:25:21.209Z,38.70
2019-04-22T20:28:01.258Z,38.20
2019-04-22T20:30:34.786Z,37.80
2019-04-22T20:32:59.498Z,38.40
2019-04-22T20:35:41.859Z,37.10
2019-04-22T20:38:08.755Z,36.90
2019-04-22T20:40:39.798Z,36.70
2019-04-22T20:43:17.910Z,36.40
2019-04-22T20:45:46.441Z,36.60
2019-04-22T20:48:06.019Z,36.50
2019-04-22T20:50:48.564Z,37.20
2019-04-22T20:53:26.775Z,36.70
2019-04-22T20:55:52.431Z,36.90
2019-04-22T20:58:30.177Z,36.70
2019-04-22T21:00:46.296Z,36.90
2019-04-22T21:03:20.906Z,37.20
2019-04-22T21:05:52.826Z,37.50
2019-04-22T21:08:38.946Z,37.30
2019-04-22T21:10:56.106Z,37.20
2019-04-22T21:13:27.833Z,37.60
2019-04-22T21:16:09.288Z,37.90
2019-04-22T21:18:36.139Z,38.20
2019-04-22T21:21:16.584Z,38.30
2019-04-22T21:23:41.279Z,39.00
2019-04-22T21:26:13.610Z,38.60
2019-04-22T21:28:49.036Z,39.10
2019-04-22T21:31:23.498Z,39.50
2019-04-22T21:33:51.598Z,40.30
2019-04-22T21:36:33.298Z,40.90
2019-04-22T21:38:54.139Z,41.10
2019-04-22T21:41:24.866Z,41.10
2019-04-22T21:43:58.052Z,40.90
2019-04-22T21:46:30.948Z,40.80
2019-04-22T21:49:09.414Z,41.00
2019-04-22T21:51:39.710Z,41.10
2019-04-22T21:54:11.766Z,41.00
2019-04-22T21:57:19.340Z,40.90
2019-04-22T21:59:40.227Z,41.00
2019-04-22T22:02:16.222Z,41.20
2019-04-22T22:04:44.480Z,41.30
2019-04-22T22:07:07.541Z,41.40
2019-04-22T22:09:47.136Z,41.40
2019-04-22T22:12:17.842Z,41.50
2019-04-22T22:14:55.835Z,41.80
2019-04-22T22:17:22.349Z,42.10
2019-04-22T22:19:52.913Z,42.40
2019-04-22T22:22:50.134Z,42.50
2019-04-22T22:25:04.584Z,42.80
2019-04-22T22:27:30.089Z,43.10
2019-04-22T22:30:26.752Z,43.40
2019-04-22T22:32:36.808Z,43.50
2019-04-22T22:35:12.108Z,43.50
2019-04-22T22:37:30.864Z,43.60
2019-04-22T22:40:00.873Z,43.60
2019-04-22T22:42:31.293Z,43.90
2019-04-22T22:45:07.754Z,43.90
2019-04-22T22:47:45.771Z,44.00
2019-04-22T22:50:23.312Z,44.20
2019-04-22T22:53:00.854Z,44.50
2019-04-22T22:55:28.916Z,44.60
2019-04-22T22:58:01.359Z,44.70
2019-04-22T23:00:28.722Z,44.30
2019-04-22T23:03:16.834Z,45.00
2019-04-22T23:05:37.581Z,45.80
2019-04-22T23:08:17.464Z,45.40
2019-04-22T23:10:52.915Z,45.70
2019-04-22T23:13:18.619Z,45.60
2019-04-22T23:15:38.464Z,45.60
2019-04-22T23:17:54.164Z,45.70
2019-04-22T23:20:31.118Z,45.80
2019-04-22T23:23:20.169Z,45.40
2019-04-22T23:25:56.733Z,45.40
2019-04-22T23:28:30.034Z,45.40
2019-04-22T23:31:25.052Z,45.60
2019-04-22T23:34:10.604Z,45.60
2019-04-22T23:36:56.352Z,45.50
2019-04-22T23:39:41.521Z,45.60
2019-04-22T23:42:14.179Z,45.40
2019-04-22T23:44:39.836Z,45.60
2019-04-22T23:47:08.705Z,45.80
2019-04-22T23:49:42.041Z,45.90
2019-04-22T23:52:19.154Z,45.80
2019-04-22T23:54:57.127Z,46.30
2019-04-22T23:57:24.170Z,46.40
2019-04-22T23:59:57.189Z,46.80
